sensor_id;sensor_type;location;lat;lon;timestamp;pressure;altitude;pressure_sealevel;temperature;humidity
28181;BME280;15464;50.988;10.318;2023-09-19T00:00:44;98192.84;;;16.43;100.00
28181;BME280;15464;50.988;10.318;2023-09-19T00:03:14;98193.66;;;16.44;100.00
28181;BME280;15464;50.988;10.318;2023-09-19T00:05:41;98195.34;;;16.45;100.00
28181;BME280;15464;50.988;10.318;2023-09-19T00:08:11;98194.06;;;16.41;100.00
28181;BME280;15464;50.988;10.318;2023-09-19T00:10:40;98192.75;;;16.37;100.00
28181;BME280;15464;50.988;10.318;2023-09-19T00:13:08;98202.44;;;16.38;100.00
28181;BME280;15464;50.988;10.318;2023-09-19T00:15:42;98199.31;;;16.34;100.00
28181;BME280;15464;50.988;10.318;2023-09-19T00:18:09;98197.84;;;16.32;100.00
28181;BME280;15464;50.988;10.318;2023-09-19T00:20:36;98190.19;;;16.29;100.00
28181;BME280;15464;50.988;10.318;2023-09-19T00:23:04;98197.38;;;16.28;100.00
28181;BME280;15464;50.988;10.318;2023-09-19T00:25:31;98199.13;;;16.21;100.00
28181;BME280;15464;50.988;10.318;2023-09-19T00:28:02;98200.72;;;16.16;100.00
28181;BME280;15464;50.988;10.318;2023-09-19T00:30:28;98198.69;;;16.18;100.00
28181;BME280;15464;50.988;10.318;2023-09-19T00:32:55;98205.88;;;16.17;100.00
28181;BME280;15464;50.988;10.318;2023-09-19T00:35:22;98210.41;;;16.17;100.00
28181;BME280;15464;50.988;10.318;2023-09-19T00:37:52;98209.00;;;16.06;100.00
28181;BME280;15464;50.988;10.318;2023-09-19T00:40:19;98208.81;;;16.07;100.00
28181;BME280;15464;50.988;10.318;2023-09-19T00:42:49;98218.16;;;16.11;100.00
28181;BME280;15464;50.988;10.318;2023-09-19T00:45:17;98214.66;;;16.11;100.00
28181;BME280;15464;50.988;10.318;2023-09-19T00:47:48;98218.69;;;16.07;100.00
28181;BME280;15464;50.988;10.318;2023-09-19T00:50:21;98218.06;;;16.05;100.00
28181;BME280;15464;50.988;10.318;2023-09-19T00:52:50;98231.59;;;16.03;100.00
28181;BME280;15464;50.988;10.318;2023-09-19T00:55:19;98223.50;;;15.97;100.00
28181;BME280;15464;50.988;10.318;2023-09-19T00:57:47;98227.00;;;15.97;100.00
28181;BME280;15464;50.988;10.318;2023-09-19T01:00:17;98234.19;;;15.97;100.00
28181;BME280;15464;50.988;10.318;2023-09-19T01:02:47;98243.03;;;15.97;100.00
28181;BME280;15464;50.988;10.318;2023-09-19T01:05:14;98248.13;;;15.92;100.00
28181;BME280;15464;50.988;10.318;2023-09-19T01:07:42;98244.41;;;15.93;100.00
28181;BME280;15464;50.988;10.318;2023-09-19T01:10:12;98249.13;;;15.91;100.00
28181;BME280;15464;50.988;10.318;2023-09-19T01:18:25;98251.50;;;15.86;100.00
28181;BME280;15464;50.988;10.318;2023-09-19T01:21:04;98250.69;;;15.86;100.00
28181;BME280;15464;50.988;10.318;2023-09-19T01:23:55;98249.91;;;15.77;100.00
28181;BME280;15464;50.988;10.318;2023-09-19T01:32:01;98249.97;;;15.69;100.00
28181;BME280;15464;50.988;10.318;2023-09-19T01:34:48;98246.47;;;15.68;100.00
28181;BME280;15464;50.988;10.318;2023-09-19T01:37:18;98248.97;;;15.70;100.00
28181;BME280;15464;50.988;10.318;2023-09-19T01:39:58;98252.34;;;15.64;100.00
28181;BME280;15464;50.988;10.318;2023-09-19T01:45:54;98252.06;;;15.59;100.00
28181;BME280;15464;50.988;10.318;2023-09-19T01:48:37;98262.09;;;15.57;100.00
28181;BME280;15464;50.988;10.318;2023-09-19T01:51:09;98260.25;;;15.57;100.00
28181;BME280;15464;50.988;10.318;2023-09-19T01:54:00;98267.66;;;15.55;100.00
28181;BME280;15464;50.988;10.318;2023-09-19T01:56:37;98266.63;;;15.56;100.00
28181;BME280;15464;50.988;10.318;2023-09-19T01:59:13;98270.13;;;15.57;100.00
28181;BME280;15464;50.988;10.318;2023-09-19T02:01:41;98277.13;;;15.58;100.00
28181;BME280;15464;50.988;10.318;2023-09-19T02:04:11;98279.16;;;15.56;100.00
28181;BME280;15464;50.988;10.318;2023-09-19T02:06:41;98280.81;;;15.57;100.00
28181;BME280;15464;50.988;10.318;2023-09-19T02:09:08;98282.47;;;15.58;100.00
28181;BME280;15464;50.988;10.318;2023-09-19T02:11:35;98291.72;;;15.55;100.00
28181;BME280;15464;50.988;10.318;2023-09-19T02:14:03;98293.53;;;15.55;100.00
28181;BME280;15464;50.988;10.318;2023-09-19T02:16:35;98297.84;;;15.56;100.00
28181;BME280;15464;50.988;10.318;2023-09-19T02:19:02;98309.22;;;15.58;100.00
28181;BME280;15464;50.988;10.318;2023-09-19T02:21:32;98304.69;;;15.58;100.00
28181;BME280;15464;50.988;10.318;2023-09-19T02:23:59;98303.53;;;15.61;100.00
28181;BME280;15464;50.988;10.318;2023-09-19T02:26:25;98306.53;;;15.58;100.00
28181;BME280;15464;50.988;10.318;2023-09-19T02:28:54;98308.75;;;15.54;100.00
28181;BME280;15464;50.988;10.318;2023-09-19T02:31:20;98312.25;;;15.55;100.00
28181;BME280;15464;50.988;10.318;2023-09-19T02:33:47;98314.84;;;15.63;100.00
28181;BME280;15464;50.988;10.318;2023-09-19T02:36:14;98317.41;;;15.56;100.00
28181;BME280;15464;50.988;10.318;2023-09-19T02:38:44;98314.09;;;15.54;100.00
28181;BME280;15464;50.988;10.318;2023-09-19T02:41:11;98317.25;;;15.50;100.00
28181;BME280;15464;50.988;10.318;2023-09-19T02:43:38;98311.44;;;15.54;100.00
28181;BME280;15464;50.988;10.318;2023-09-19T02:46:05;98307.91;;;15.54;100.00
28181;BME280;15464;50.988;10.318;2023-09-19T02:48:33;98314.41;;;15.51;100.00
28181;BME280;15464;50.988;10.318;2023-09-19T02:51:01;98313.09;;;15.47;100.00
28181;BME280;15464;50.988;10.318;2023-09-19T02:53:28;98309.91;;;15.52;100.00
28181;BME280;15464;50.988;10.318;2023-09-19T02:55:54;98313.56;;;15.51;100.00
28181;BME280;15464;50.988;10.318;2023-09-19T02:58:21;98314.28;;;15.45;100.00
28181;BME280;15464;50.988;10.318;2023-09-19T03:03:38;98321.00;;;15.41;100.00
28181;BME280;15464;50.988;10.318;2023-09-19T03:06:06;98333.53;;;15.40;100.00
28181;BME280;15464;50.988;10.318;2023-09-19T03:08:36;98335.06;;;15.34;100.00
28181;BME280;15464;50.988;10.318;2023-09-19T03:11:06;98337.75;;;15.34;100.00
28181;BME280;15464;50.988;10.318;2023-09-19T03:13:34;98330.91;;;15.32;100.00
28181;BME280;15464;50.988;10.318;2023-09-19T03:16:04;98334.78;;;15.29;100.00
28181;BME280;15464;50.988;10.318;2023-09-19T03:18:34;98341.44;;;15.25;100.00
28181;BME280;15464;50.988;10.318;2023-09-19T03:21:01;98338.47;;;15.20;100.00
28181;BME280;15464;50.988;10.318;2023-09-19T03:23:28;98354.50;;;15.20;100.00
28181;BME280;15464;50.988;10.318;2023-09-19T03:25:55;98352.38;;;15.16;100.00
28181;BME280;15464;50.988;10.318;2023-09-19T03:28:23;98358.88;;;15.13;100.00
28181;BME280;15464;50.988;10.318;2023-09-19T03:31:03;98360.06;;;15.11;100.00
28181;BME280;15464;50.988;10.318;2023-09-19T03:33:30;98364.91;;;15.07;100.00
28181;BME280;15464;50.988;10.318;2023-09-19T03:36:01;98362.41;;;15.06;100.00
28181;BME280;15464;50.988;10.318;2023-09-19T03:38:32;98363.59;;;15.11;96.41
28181;BME280;15464;50.988;10.318;2023-09-19T03:40:58;98365.75;;;15.08;95.93
28181;BME280;15464;50.988;10.318;2023-09-19T03:43:25;98366.28;;;15.03;93.54
28181;BME280;15464;50.988;10.318;2023-09-19T03:45:53;98357.91;;;15.06;93.30
28181;BME280;15464;50.988;10.318;2023-09-19T03:48:21;98361.09;;;15.02;88.99
28181;BME280;15464;50.988;10.318;2023-09-19T03:50:48;98367.59;;;14.99;90.88
28181;BME280;15464;50.988;10.318;2023-09-19T03:53:15;98371.47;;;14.97;90.31
28181;BME280;15464;50.988;10.318;2023-09-19T03:55:41;98367.97;;;14.96;91.13
28181;BME280;15464;50.988;10.318;2023-09-19T03:58:10;98364.00;;;14.92;90.20
28181;BME280;15464;50.988;10.318;2023-09-19T04:00:37;98373.00;;;14.91;91.23
28181;BME280;15464;50.988;10.318;2023-09-19T04:03:05;98370.66;;;14.88;91.18
28181;BME280;15464;50.988;10.318;2023-09-19T04:05:33;98368.00;;;14.88;90.21
28181;BME280;15464;50.988;10.318;2023-09-19T04:08:00;98371.84;;;14.85;90.98
28181;BME280;15464;50.988;10.318;2023-09-19T04:10:27;98372.69;;;14.86;91.42
28181;BME280;15464;50.988;10.318;2023-09-19T04:12:55;98373.03;;;14.83;92.15
28181;BME280;15464;50.988;10.318;2023-09-19T04:15:23;98369.69;;;14.81;92.55
28181;BME280;15464;50.988;10.318;2023-09-19T04:17:51;98372.34;;;14.81;92.07
28181;BME280;15464;50.988;10.318;2023-09-19T04:20:18;98372.19;;;14.82;92.70
28181;BME280;15464;50.988;10.318;2023-09-19T04:22:51;98372.53;;;14.79;92.76
28181;BME280;15464;50.988;10.318;2023-09-19T04:25:19;98370.72;;;14.72;93.84
28181;BME280;15464;50.988;10.318;2023-09-19T04:27:46;98379.41;;;14.74;94.05
28181;BME280;15464;50.988;10.318;2023-09-19T04:30:13;98384.38;;;14.77;94.04
28181;BME280;15464;50.988;10.318;2023-09-19T04:32:41;98388.06;;;14.76;94.21
28181;BME280;15464;50.988;10.318;2023-09-19T04:35:09;98392.91;;;14.72;94.58
28181;BME280;15464;50.988;10.318;2023-09-19T04:37:40;98401.25;;;14.69;94.30
28181;BME280;15464;50.988;10.318;2023-09-19T04:42:40;98408.63;;;14.67;95.79
28181;BME280;15464;50.988;10.318;2023-09-19T04:45:08;98411.44;;;14.58;97.12
28181;BME280;15464;50.988;10.318;2023-09-19T04:47:37;98414.63;;;14.53;98.33
28181;BME280;15464;50.988;10.318;2023-09-19T04:50:07;98415.78;;;14.50;99.13
28181;BME280;15464;50.988;10.318;2023-09-19T04:52:34;98422.81;;;14.51;98.85
28181;BME280;15464;50.988;10.318;2023-09-19T04:55:01;98418.47;;;14.50;98.48
28181;BME280;15464;50.988;10.318;2023-09-19T04:57:28;98429.31;;;14.49;99.18
28181;BME280;15464;50.988;10.318;2023-09-19T04:59:55;98424.78;;;14.49;98.97
28181;BME280;15464;50.988;10.318;2023-09-19T05:02:21;98429.50;;;14.47;99.15
28181;BME280;15464;50.988;10.318;2023-09-19T05:04:48;98433.84;;;14.48;98.30
28181;BME280;15464;50.988;10.318;2023-09-19T05:07:15;98424.63;;;14.51;98.44
28181;BME280;15464;50.988;10.318;2023-09-19T05:09:43;98425.78;;;14.57;97.96
28181;BME280;15464;50.988;10.318;2023-09-19T05:12:10;98431.47;;;14.53;97.77
28181;BME280;15464;50.988;10.318;2023-09-19T05:14:37;98436.81;;;14.53;97.41
28181;BME280;15464;50.988;10.318;2023-09-19T05:17:04;98437.47;;;14.56;96.78
28181;BME280;15464;50.988;10.318;2023-09-19T05:19:30;98439.81;;;14.59;97.21
28181;BME280;15464;50.988;10.318;2023-09-19T05:21:58;98433.81;;;14.57;96.36
28181;BME280;15464;50.988;10.318;2023-09-19T05:24:24;98443.16;;;14.61;96.91
28181;BME280;15464;50.988;10.318;2023-09-19T05:26:53;98437.16;;;14.59;97.02
28181;BME280;15464;50.988;10.318;2023-09-19T05:29:21;98444.78;;;14.62;96.96
28181;BME280;15464;50.988;10.318;2023-09-19T05:31:48;98447.16;;;14.65;96.66
28181;BME280;15464;50.988;10.318;2023-09-19T05:34:16;98438.13;;;14.66;96.44
28181;BME280;15464;50.988;10.318;2023-09-19T05:36:43;98435.94;;;14.69;95.89
28181;BME280;15464;50.988;10.318;2023-09-19T05:39:09;98436.78;;;14.70;96.12
28181;BME280;15464;50.988;10.318;2023-09-19T05:41:36;98440.47;;;14.69;95.98
28181;BME280;15464;50.988;10.318;2023-09-19T05:44:03;98442.13;;;14.70;96.29
28181;BME280;15464;50.988;10.318;2023-09-19T05:46:30;98444.78;;;14.78;96.59
28181;BME280;15464;50.988;10.318;2023-09-19T05:48:57;98441.13;;;14.79;95.05
28181;BME280;15464;50.988;10.318;2023-09-19T05:51:23;98443.59;;;14.80;95.44
28181;BME280;15464;50.988;10.318;2023-09-19T05:53:50;98440.78;;;14.82;94.43
28181;BME280;15464;50.988;10.318;2023-09-19T05:56:18;98443.13;;;14.85;95.39
28181;BME280;15464;50.988;10.318;2023-09-19T05:58:46;98451.78;;;14.87;95.56
28181;BME280;15464;50.988;10.318;2023-09-19T06:01:12;98446.63;;;14.85;93.89
28181;BME280;15464;50.988;10.318;2023-09-19T06:03:39;98454.13;;;14.90;94.69
28181;BME280;15464;50.988;10.318;2023-09-19T06:06:06;98438.56;;;14.93;94.74
28181;BME280;15464;50.988;10.318;2023-09-19T06:08:33;98447.63;;;14.92;94.47
28181;BME280;15464;50.988;10.318;2023-09-19T06:11:00;98460.44;;;14.97;92.55
28181;BME280;15464;50.988;10.318;2023-09-19T06:13:29;98464.13;;;14.96;93.08
28181;BME280;15464;50.988;10.318;2023-09-19T06:15:56;98470.78;;;15.00;93.27
28181;BME280;15464;50.988;10.318;2023-09-19T06:18:23;98483.44;;;15.06;92.96
28181;BME280;15464;50.988;10.318;2023-09-19T06:20:52;98470.59;;;15.02;92.59
28181;BME280;15464;50.988;10.318;2023-09-19T06:23:20;98474.44;;;15.07;92.89
28181;BME280;15464;50.988;10.318;2023-09-19T06:25:47;98473.28;;;15.10;92.37
28181;BME280;15464;50.988;10.318;2023-09-19T06:28:15;98476.41;;;15.13;91.98
28181;BME280;15464;50.988;10.318;2023-09-19T06:30:44;98473.91;;;15.12;91.21
28181;BME280;15464;50.988;10.318;2023-09-19T06:33:11;98478.56;;;15.18;91.38
28181;BME280;15464;50.988;10.318;2023-09-19T06:35:43;98488.09;;;15.20;90.90
28181;BME280;15464;50.988;10.318;2023-09-19T06:38:13;98493.44;;;15.20;91.09
28181;BME280;15464;50.988;10.318;2023-09-19T06:40:42;98504.97;;;15.21;88.96
28181;BME280;15464;50.988;10.318;2023-09-19T06:43:10;98509.97;;;15.24;88.64
28181;BME280;15464;50.988;10.318;2023-09-19T06:45:37;98512.44;;;15.25;89.04
28181;BME280;15464;50.988;10.318;2023-09-19T06:48:04;98516.47;;;15.21;87.01
28181;BME280;15464;50.988;10.318;2023-09-19T06:50:31;98519.16;;;15.29;88.82
28181;BME280;15464;50.988;10.318;2023-09-19T06:52:59;98534.81;;;15.32;88.28
28181;BME280;15464;50.988;10.318;2023-09-19T06:55:27;98545.50;;;15.32;87.14
28181;BME280;15464;50.988;10.318;2023-09-19T06:57:59;98548.84;;;15.34;87.76
28181;BME280;15464;50.988;10.318;2023-09-19T07:00:26;98549.50;;;15.37;87.42
28181;BME280;15464;50.988;10.318;2023-09-19T07:03:01;98560.06;;;15.30;84.22
28181;BME280;15464;50.988;10.318;2023-09-19T07:05:31;98560.75;;;15.24;83.00
28181;BME280;15464;50.988;10.318;2023-09-19T07:07:59;98571.59;;;15.22;81.30
28181;BME280;15464;50.988;10.318;2023-09-19T07:10:27;98583.59;;;15.18;78.45
28181;BME280;15464;50.988;10.318;2023-09-19T07:13:05;98575.78;;;15.17;77.30
28181;BME280;15464;50.988;10.318;2023-09-19T07:15:36;98586.94;;;15.12;76.66
28181;BME280;15464;50.988;10.318;2023-09-19T07:18:06;98587.09;;;15.19;78.85
28181;BME280;15464;50.988;10.318;2023-09-19T07:20:33;98584.28;;;15.28;78.81
28181;BME280;15464;50.988;10.318;2023-09-19T07:23:01;98589.25;;;15.31;77.56
28181;BME280;15464;50.988;10.318;2023-09-19T07:25:29;98597.94;;;15.42;77.99
28181;BME280;15464;50.988;10.318;2023-09-19T07:27:57;98594.56;;;15.64;78.11
28181;BME280;15464;50.988;10.318;2023-09-19T07:30:27;98591.88;;;15.80;77.55
28181;BME280;15464;50.988;10.318;2023-09-19T07:32:54;98596.31;;;15.88;77.13
28181;BME280;15464;50.988;10.318;2023-09-19T07:35:21;98606.72;;;15.83;76.15
28181;BME280;15464;50.988;10.318;2023-09-19T07:37:49;98602.69;;;15.87;76.80
28181;BME280;15464;50.988;10.318;2023-09-19T07:40:17;98601.19;;;15.92;75.74
28181;BME280;15464;50.988;10.318;2023-09-19T07:42:44;98614.22;;;15.87;74.16
28181;BME280;15464;50.988;10.318;2023-09-19T07:45:13;98599.13;;;16.02;74.46
28181;BME280;15464;50.988;10.318;2023-09-19T07:47:48;98594.81;;;16.24;74.66
28181;BME280;15464;50.988;10.318;2023-09-19T07:50:19;98605.47;;;16.40;72.62
28181;BME280;15464;50.988;10.318;2023-09-19T07:52:47;98604.94;;;16.45;73.21
28181;BME280;15464;50.988;10.318;2023-09-19T07:55:14;98612.22;;;16.59;72.81
28181;BME280;15464;50.988;10.318;2023-09-19T07:57:46;98612.00;;;16.38;71.76
28181;BME280;15464;50.988;10.318;2023-09-19T08:00:13;98612.97;;;16.45;71.16
28181;BME280;15464;50.988;10.318;2023-09-19T08:02:41;98603.59;;;16.49;71.88
28181;BME280;15464;50.988;10.318;2023-09-19T08:05:09;98609.41;;;16.52;68.62
28181;BME280;15464;50.988;10.318;2023-09-19T08:07:42;98606.47;;;16.39;68.17
28181;BME280;15464;50.988;10.318;2023-09-19T08:10:09;98612.53;;;16.33;67.93
28181;BME280;15464;50.988;10.318;2023-09-19T08:12:40;98608.56;;;16.52;70.30
28181;BME280;15464;50.988;10.318;2023-09-19T08:15:14;98599.28;;;16.40;66.85
28181;BME280;15464;50.988;10.318;2023-09-19T08:17:41;98605.88;;;16.29;65.38
28181;BME280;15464;50.988;10.318;2023-09-19T08:20:09;98607.69;;;16.29;66.18
28181;BME280;15464;50.988;10.318;2023-09-19T08:22:53;98611.28;;;16.44;67.71
28181;BME280;15464;50.988;10.318;2023-09-19T08:25:21;98619.28;;;16.52;68.48
28181;BME280;15464;50.988;10.318;2023-09-19T08:27:49;98616.25;;;16.55;68.32
28181;BME280;15464;50.988;10.318;2023-09-19T08:30:19;98621.66;;;16.47;67.60
28181;BME280;15464;50.988;10.318;2023-09-19T08:32:51;98618.69;;;16.42;66.75
28181;BME280;15464;50.988;10.318;2023-09-19T08:35:18;98621.38;;;16.34;65.57
28181;BME280;15464;50.988;10.318;2023-09-19T08:37:46;98618.00;;;16.40;66.98
28181;BME280;15464;50.988;10.318;2023-09-19T08:40:13;98625.44;;;16.30;65.68
28181;BME280;15464;50.988;10.318;2023-09-19T08:42:52;98615.38;;;16.32;64.54
28181;BME280;15464;50.988;10.318;2023-09-19T08:45:21;98624.38;;;16.39;65.85
28181;BME280;15464;50.988;10.318;2023-09-19T08:48:24;98625.34;;;16.46;65.26
28181;BME280;15464;50.988;10.318;2023-09-19T08:50:56;98616.63;;;16.44;64.24
28181;BME280;15464;50.988;10.318;2023-09-19T08:56:17;98627.72;;;16.41;63.84
28181;BME280;15464;50.988;10.318;2023-09-19T08:58:50;98619.38;;;16.36;63.82
28181;BME280;15464;50.988;10.318;2023-09-19T09:01:20;98633.41;;;16.38;62.63
28181;BME280;15464;50.988;10.318;2023-09-19T09:03:55;98632.69;;;16.44;63.12
28181;BME280;15464;50.988;10.318;2023-09-19T09:06:24;98633.63;;;16.59;64.26
28181;BME280;15464;50.988;10.318;2023-09-19T09:08:51;98641.66;;;16.59;61.27
28181;BME280;15464;50.988;10.318;2023-09-19T09:11:19;98642.28;;;16.69;62.82
28181;BME280;15464;50.988;10.318;2023-09-19T09:13:46;98643.84;;;16.64;61.95
28181;BME280;15464;50.988;10.318;2023-09-19T09:16:14;98640.00;;;16.58;62.04
28181;BME280;15464;50.988;10.318;2023-09-19T09:18:46;98641.47;;;16.69;61.78
28181;BME280;15464;50.988;10.318;2023-09-19T09:21:21;98647.31;;;16.72;62.13
28181;BME280;15464;50.988;10.318;2023-09-19T09:23:49;98641.59;;;16.75;62.47
28181;BME280;15464;50.988;10.318;2023-09-19T09:29:05;98635.13;;;16.92;62.98
28181;BME280;15464;50.988;10.318;2023-09-19T09:31:32;98633.03;;;17.03;62.88
28181;BME280;15464;50.988;10.318;2023-09-19T09:33:59;98629.19;;;17.20;63.60
28181;BME280;15464;50.988;10.318;2023-09-19T09:36:37;98627.28;;;17.28;64.10
28181;BME280;15464;50.988;10.318;2023-09-19T09:39:04;98636.44;;;17.34;63.60
28181;BME280;15464;50.988;10.318;2023-09-19T09:41:51;98644.94;;;17.38;63.17
28181;BME280;15464;50.988;10.318;2023-09-19T09:44:18;98633.09;;;17.32;62.02
28181;BME280;15464;50.988;10.318;2023-09-19T09:46:47;98638.00;;;17.28;62.66
28181;BME280;15464;50.988;10.318;2023-09-19T09:49:27;98627.72;;;17.17;61.72
28181;BME280;15464;50.988;10.318;2023-09-19T09:52:05;98626.69;;;17.18;60.62
28181;BME280;15464;50.988;10.318;2023-09-19T09:55:00;98630.88;;;17.21;61.07
28181;BME280;15464;50.988;10.318;2023-09-19T09:57:32;98632.75;;;17.35;61.84
28181;BME280;15464;50.988;10.318;2023-09-19T10:00:00;98625.00;;;17.40;61.69
28181;BME280;15464;50.988;10.318;2023-09-19T10:02:36;98621.31;;;17.41;60.98
28181;BME280;15464;50.988;10.318;2023-09-19T10:08:11;98623.50;;;17.60;62.17
28181;BME280;15464;50.988;10.318;2023-09-19T10:10:40;98623.38;;;17.68;62.01
28181;BME280;15464;50.988;10.318;2023-09-19T10:13:13;98618.97;;;17.76;61.18
28181;BME280;15464;50.988;10.318;2023-09-19T10:15:48;98622.94;;;17.65;58.39
28181;BME280;15464;50.988;10.318;2023-09-19T10:18:37;98619.31;;;17.87;59.34
28181;BME280;15464;50.988;10.318;2023-09-19T10:21:08;98622.47;;;17.76;56.98
28181;BME280;15464;50.988;10.318;2023-09-19T10:23:36;98621.91;;;17.81;58.48
28181;BME280;15464;50.988;10.318;2023-09-19T10:26:05;98624.50;;;17.89;57.09
28181;BME280;15464;50.988;10.318;2023-09-19T10:28:32;98619.88;;;17.83;57.10
28181;BME280;15464;50.988;10.318;2023-09-19T10:31:00;98623.94;;;18.08;58.37
28181;BME280;15464;50.988;10.318;2023-09-19T10:33:35;98622.00;;;17.87;57.87
28181;BME280;15464;50.988;10.318;2023-09-19T10:36:04;98614.44;;;17.91;58.53
28181;BME280;15464;50.988;10.318;2023-09-19T10:38:32;98623.69;;;18.03;58.76
28181;BME280;15464;50.988;10.318;2023-09-19T10:41:01;98627.56;;;18.15;58.40
28181;BME280;15464;50.988;10.318;2023-09-19T10:43:30;98623.22;;;18.14;58.16
28181;BME280;15464;50.988;10.318;2023-09-19T10:46:06;98634.16;;;17.98;58.19
28181;BME280;15464;50.988;10.318;2023-09-19T10:48:34;98640.16;;;18.14;58.26
28181;BME280;15464;50.988;10.318;2023-09-19T10:51:16;98632.94;;;18.00;57.94
28181;BME280;15464;50.988;10.318;2023-09-19T10:53:49;98638.50;;;17.99;57.77
28181;BME280;15464;50.988;10.318;2023-09-19T10:56:23;98633.41;;;18.04;58.46
28181;BME280;15464;50.988;10.318;2023-09-19T10:59:12;98638.97;;;18.17;58.53
28181;BME280;15464;50.988;10.318;2023-09-19T11:01:47;98629.31;;;18.08;57.06
28181;BME280;15464;50.988;10.318;2023-09-19T11:04:30;98630.59;;;18.12;58.05
28181;BME280;15464;50.988;10.318;2023-09-19T11:07:12;98637.38;;;18.23;58.10
28181;BME280;15464;50.988;10.318;2023-09-19T11:15:01;98635.88;;;18.20;58.25
28181;BME280;15464;50.988;10.318;2023-09-19T11:17:35;98635.09;;;18.05;58.11
28181;BME280;15464;50.988;10.318;2023-09-19T11:30:37;98631.94;;;18.52;55.95
28181;BME280;15464;50.988;10.318;2023-09-19T11:36:03;98624.78;;;18.23;55.11
28181;BME280;15464;50.988;10.318;2023-09-19T11:46:34;98639.56;;;18.34;53.94
28181;BME280;15464;50.988;10.318;2023-09-19T11:49:08;98635.38;;;18.61;52.82
28181;BME280;15464;50.988;10.318;2023-09-19T11:51:43;98620.03;;;18.76;51.84
28181;BME280;15464;50.988;10.318;2023-09-19T11:54:11;98625.81;;;18.73;51.72
28181;BME280;15464;50.988;10.318;2023-09-19T11:56:45;98611.91;;;19.12;51.69
28181;BME280;15464;50.988;10.318;2023-09-19T11:59:22;98618.56;;;19.16;52.19
28181;BME280;15464;50.988;10.318;2023-09-19T12:01:55;98610.31;;;18.75;50.08
28181;BME280;15464;50.988;10.318;2023-09-19T12:04:37;98603.41;;;18.87;49.99
28181;BME280;15464;50.988;10.318;2023-09-19T12:07:07;98610.28;;;18.39;51.05
28181;BME280;15464;50.988;10.318;2023-09-19T12:09:44;98613.91;;;18.61;50.63
28181;BME280;15464;50.988;10.318;2023-09-19T12:12:24;98603.28;;;19.16;51.97
28181;BME280;15464;50.988;10.318;2023-09-19T12:14:56;98616.41;;;19.05;50.22
28181;BME280;15464;50.988;10.318;2023-09-19T12:17:39;98611.59;;;18.79;51.20
28181;BME280;15464;50.988;10.318;2023-09-19T12:20:08;98617.38;;;19.74;51.89
28181;BME280;15464;50.988;10.318;2023-09-19T12:22:44;98617.16;;;19.69;51.57
28181;BME280;15464;50.988;10.318;2023-09-19T12:25:13;98621.13;;;19.73;51.78
28181;BME280;15464;50.988;10.318;2023-09-19T12:27:49;98623.72;;;20.29;50.21
28181;BME280;15464;50.988;10.318;2023-09-19T12:30:19;98612.78;;;20.37;50.71
28181;BME280;15464;50.988;10.318;2023-09-19T12:32:54;98610.72;;;20.39;50.56
28181;BME280;15464;50.988;10.318;2023-09-19T12:37:56;98624.91;;;19.29;48.72
28181;BME280;15464;50.988;10.318;2023-09-19T12:40:24;98627.94;;;20.03;49.23
28181;BME280;15464;50.988;10.318;2023-09-19T12:42:56;98623.16;;;19.71;48.01
28181;BME280;15464;50.988;10.318;2023-09-19T12:45:25;98626.59;;;19.93;49.29
28181;BME280;15464;50.988;10.318;2023-09-19T12:53:40;98610.19;;;19.81;49.56
28181;BME280;15464;50.988;10.318;2023-09-19T12:56:10;98605.03;;;19.80;49.81
28181;BME280;15464;50.988;10.318;2023-09-19T12:58:52;98607.66;;;20.07;50.04
28181;BME280;15464;50.988;10.318;2023-09-19T13:01:23;98606.44;;;19.76;49.55
28181;BME280;15464;50.988;10.318;2023-09-19T13:06:48;98601.47;;;20.13;48.62
28181;BME280;15464;50.988;10.318;2023-09-19T13:09:17;98588.69;;;20.29;48.59
28181;BME280;15464;50.988;10.318;2023-09-19T13:11:44;98590.31;;;20.17;48.45
28181;BME280;15464;50.988;10.318;2023-09-19T13:14:23;98604.53;;;19.69;47.52
28181;BME280;15464;50.988;10.318;2023-09-19T13:22:44;98592.25;;;21.23;46.82
28181;BME280;15464;50.988;10.318;2023-09-19T13:25:21;98601.22;;;20.56;47.00
28181;BME280;15464;50.988;10.318;2023-09-19T13:27:53;98585.56;;;20.92;48.13
28181;BME280;15464;50.988;10.318;2023-09-19T13:30:25;98588.03;;;20.94;47.57
28181;BME280;15464;50.988;10.318;2023-09-19T13:33:08;98594.47;;;20.93;47.57
28181;BME280;15464;50.988;10.318;2023-09-19T13:35:38;98599.84;;;20.86;47.79
28181;BME280;15464;50.988;10.318;2023-09-19T13:38:06;98597.72;;;20.62;48.51
28181;BME280;15464;50.988;10.318;2023-09-19T13:40:38;98584.25;;;20.62;48.29
28181;BME280;15464;50.988;10.318;2023-09-19T13:43:08;98592.59;;;20.87;48.51
28181;BME280;15464;50.988;10.318;2023-09-19T13:45:35;98592.19;;;20.83;48.64
28181;BME280;15464;50.988;10.318;2023-09-19T13:48:03;98587.84;;;21.09;49.12
28181;BME280;15464;50.988;10.318;2023-09-19T13:50:30;98598.00;;;21.00;47.13
28181;BME280;15464;50.988;10.318;2023-09-19T13:52:57;98591.53;;;20.81;48.31
28181;BME280;15464;50.988;10.318;2023-09-19T13:55:27;98590.69;;;20.74;47.20
28181;BME280;15464;50.988;10.318;2023-09-19T13:57:54;98588.03;;;20.81;47.79
28181;BME280;15464;50.988;10.318;2023-09-19T14:00:22;98582.06;;;20.99;47.79
28181;BME280;15464;50.988;10.318;2023-09-19T14:02:49;98603.72;;;20.58;47.85
28181;BME280;15464;50.988;10.318;2023-09-19T14:05:18;98582.63;;;20.61;48.40
28181;BME280;15464;50.988;10.318;2023-09-19T14:07:45;98591.66;;;20.40;47.98
28181;BME280;15464;50.988;10.318;2023-09-19T14:10:13;98583.69;;;20.26;48.33
28181;BME280;15464;50.988;10.318;2023-09-19T14:12:40;98591.09;;;20.10;47.56
28181;BME280;15464;50.988;10.318;2023-09-19T14:15:11;98583.91;;;19.83;48.63